sensor_id;sensor_type;location;lat;lon;timestamp;P1;durP1;ratioP1;P2;durP2;ratioP2
64986;SDS011;67903;52.108;9.358;2024-01-15T00:01:48;9.52;;;6.50;;
64986;SDS011;67903;52.108;9.358;2024-01-15T00:04:37;9.68;;;6.47;;
64986;SDS011;67903;52.108;9.358;2024-01-15T00:07:24;9.00;;;7.88;;
64986;SDS011;67903;52.108;9.358;2024-01-15T00:10:09;9.95;;;7.10;;
64986;SDS011;67903;52.108;9.358;2024-01-15T00:12:55;5.45;;;4.65;;
64986;SDS011;67903;52.108;9.358;2024-01-15T00:15:40;7.13;;;5.35;;
64986;SDS011;67903;52.108;9.358;2024-01-15T00:18:26;8.60;;;7.10;;
64986;SDS011;67903;52.108;9.358;2024-01-15T00:21:12;8.13;;;5.80;;
64986;SDS011;67903;52.108;9.358;2024-01-15T00:23:57;10.68;;;6.75;;
64986;SDS011;67903;52.108;9.358;2024-01-15T00:26:43;7.75;;;5.20;;
64986;SDS011;67903;52.108;9.358;2024-01-15T00:29:29;7.68;;;5.70;;
64986;SDS011;67903;52.108;9.358;2024-01-15T00:32:14;8.02;;;5.75;;
64986;SDS011;67903;52.108;9.358;2024-01-15T00:35:00;3.58;;;2.95;;
64986;SDS011;67903;52.108;9.358;2024-01-15T00:37:45;7.63;;;5.07;;
64986;SDS011;67903;52.108;9.358;2024-01-15T00:40:31;5.40;;;4.03;;
64986;SDS011;67903;52.108;9.358;2024-01-15T00:43:16;4.97;;;4.03;;
64986;SDS011;67903;52.108;9.358;2024-01-15T00:46:03;9.65;;;6.07;;
64986;SDS011;67903;52.108;9.358;2024-01-15T00:48:49;9.40;;;4.80;;
64986;SDS011;67903;52.108;9.358;2024-01-15T00:51:35;6.38;;;4.20;;
64986;SDS011;67903;52.108;9.358;2024-01-15T00:54:20;5.97;;;4.70;;
64986;SDS011;67903;52.108;9.358;2024-01-15T00:57:06;6.35;;;4.45;;
64986;SDS011;67903;52.108;9.358;2024-01-15T00:59:51;9.23;;;4.97;;
64986;SDS011;67903;52.108;9.358;2024-01-15T01:02:37;5.20;;;3.38;;
64986;SDS011;67903;52.108;9.358;2024-01-15T01:05:23;8.02;;;3.85;;
64986;SDS011;67903;52.108;9.358;2024-01-15T01:08:08;7.78;;;4.53;;
64986;SDS011;67903;52.108;9.358;2024-01-15T01:10:55;7.60;;;4.03;;
64986;SDS011;67903;52.108;9.358;2024-01-15T01:13:41;9.25;;;4.65;;
64986;SDS011;67903;52.108;9.358;2024-01-15T01:16:27;4.18;;;2.90;;
64986;SDS011;67903;52.108;9.358;2024-01-15T01:19:12;14.00;;;3.65;;
64986;SDS011;67903;52.108;9.358;2024-01-15T01:21:58;8.35;;;5.25;;
64986;SDS011;67903;52.108;9.358;2024-01-15T01:24:43;7.40;;;3.60;;
64986;SDS011;67903;52.108;9.358;2024-01-15T01:27:29;6.45;;;3.97;;
64986;SDS011;67903;52.108;9.358;2024-01-15T01:30:14;6.35;;;3.70;;
64986;SDS011;67903;52.108;9.358;2024-01-15T01:33:00;5.32;;;2.85;;
64986;SDS011;67903;52.108;9.358;2024-01-15T01:35:45;6.32;;;2.92;;
64986;SDS011;67903;52.108;9.358;2024-01-15T01:38:32;4.32;;;3.25;;
64986;SDS011;67903;52.108;9.358;2024-01-15T01:41:17;5.07;;;2.90;;
64986;SDS011;67903;52.108;9.358;2024-01-15T01:44:03;6.28;;;4.03;;
64986;SDS011;67903;52.108;9.358;2024-01-15T01:46:49;3.92;;;2.78;;
64986;SDS011;67903;52.108;9.358;2024-01-15T01:49:35;9.07;;;4.07;;
64986;SDS011;67903;52.108;9.358;2024-01-15T01:52:22;7.30;;;4.22;;
64986;SDS011;67903;52.108;9.358;2024-01-15T01:55:08;5.25;;;4.00;;
64986;SDS011;67903;52.108;9.358;2024-01-15T01:57:55;4.50;;;3.28;;
64986;SDS011;67903;52.108;9.358;2024-01-15T02:00:41;8.05;;;3.28;;
64986;SDS011;67903;52.108;9.358;2024-01-15T02:03:27;4.80;;;2.85;;
64986;SDS011;67903;52.108;9.358;2024-01-15T02:06:13;5.78;;;3.13;;
64986;SDS011;67903;52.108;9.358;2024-01-15T02:08:59;2.90;;;2.30;;
64986;SDS011;67903;52.108;9.358;2024-01-15T02:11:48;6.47;;;3.83;;
64986;SDS011;67903;52.108;9.358;2024-01-15T02:14:34;6.03;;;3.33;;
64986;SDS011;67903;52.108;9.358;2024-01-15T02:17:20;5.10;;;3.08;;
64986;SDS011;67903;52.108;9.358;2024-01-15T02:20:05;4.32;;;2.95;;
64986;SDS011;67903;52.108;9.358;2024-01-15T02:22:51;7.25;;;3.42;;
64986;SDS011;67903;52.108;9.358;2024-01-15T02:25:41;4.15;;;2.78;;
64986;SDS011;67903;52.108;9.358;2024-01-15T02:28:28;5.55;;;2.70;;
64986;SDS011;67903;52.108;9.358;2024-01-15T02:31:14;8.85;;;2.90;;
64986;SDS011;67903;52.108;9.358;2024-01-15T02:33:59;4.97;;;2.80;;
64986;SDS011;67903;52.108;9.358;2024-01-15T02:36:45;7.60;;;3.35;;
64986;SDS011;67903;52.108;9.358;2024-01-15T02:39:30;3.83;;;1.85;;
64986;SDS011;67903;52.108;9.358;2024-01-15T02:42:16;9.30;;;3.42;;
64986;SDS011;67903;52.108;9.358;2024-01-15T02:45:01;9.30;;;2.95;;
64986;SDS011;67903;52.108;9.358;2024-01-15T02:47:49;3.53;;;2.22;;
64986;SDS011;67903;52.108;9.358;2024-01-15T02:50:35;5.28;;;2.88;;
64986;SDS011;67903;52.108;9.358;2024-01-15T02:53:21;6.85;;;2.20;;
64986;SDS011;67903;52.108;9.358;2024-01-15T02:56:07;2.42;;;2.08;;
64986;SDS011;67903;52.108;9.358;2024-01-15T02:58:52;8.68;;;2.58;;
64986;SDS011;67903;52.108;9.358;2024-01-15T03:01:37;4.57;;;1.92;;
64986;SDS011;67903;52.108;9.358;2024-01-15T03:04:23;10.05;;;3.00;;
64986;SDS011;67903;52.108;9.358;2024-01-15T03:07:08;3.50;;;1.90;;
64986;SDS011;67903;52.108;9.358;2024-01-15T03:09:54;3.83;;;2.40;;
64986;SDS011;67903;52.108;9.358;2024-01-15T03:12:40;2.75;;;2.00;;
64986;SDS011;67903;52.108;9.358;2024-01-15T03:15:25;2.83;;;1.60;;
64986;SDS011;67903;52.108;9.358;2024-01-15T03:18:11;8.40;;;2.72;;
64986;SDS011;67903;52.108;9.358;2024-01-15T03:20:56;7.15;;;3.03;;
64986;SDS011;67903;52.108;9.358;2024-01-15T03:23:42;6.57;;;2.75;;
64986;SDS011;67903;52.108;9.358;2024-01-15T03:26:27;9.18;;;2.92;;
64986;SDS011;67903;52.108;9.358;2024-01-15T03:29:13;8.05;;;2.78;;
64986;SDS011;67903;52.108;9.358;2024-01-15T03:31:58;3.83;;;2.65;;
64986;SDS011;67903;52.108;9.358;2024-01-15T03:34:44;6.90;;;1.83;;
64986;SDS011;67903;52.108;9.358;2024-01-15T03:37:30;6.05;;;2.92;;
64986;SDS011;67903;52.108;9.358;2024-01-15T03:40:15;9.48;;;3.15;;
64986;SDS011;67903;52.108;9.358;2024-01-15T03:43:07;9.05;;;2.40;;
64986;SDS011;67903;52.108;9.358;2024-01-15T03:45:52;4.93;;;2.22;;
64986;SDS011;67903;52.108;9.358;2024-01-15T03:48:38;7.93;;;3.38;;
64986;SDS011;67903;52.108;9.358;2024-01-15T03:51:24;4.32;;;1.45;;
64986;SDS011;67903;52.108;9.358;2024-01-15T03:54:10;6.65;;;2.88;;
64986;SDS011;67903;52.108;9.358;2024-01-15T03:56:55;6.07;;;2.55;;
64986;SDS011;67903;52.108;9.358;2024-01-15T03:59:41;7.10;;;2.97;;
64986;SDS011;67903;52.108;9.358;2024-01-15T04:02:27;3.75;;;1.83;;
64986;SDS011;67903;52.108;9.358;2024-01-15T04:05:12;4.45;;;2.60;;
64986;SDS011;67903;52.108;9.358;2024-01-15T04:07:58;3.45;;;2.10;;
64986;SDS011;67903;52.108;9.358;2024-01-15T04:10:44;5.25;;;2.00;;
64986;SDS011;67903;52.108;9.358;2024-01-15T04:13:32;4.70;;;2.80;;
64986;SDS011;67903;52.108;9.358;2024-01-15T04:16:17;6.85;;;3.08;;
64986;SDS011;67903;52.108;9.358;2024-01-15T04:19:03;7.22;;;3.35;;
64986;SDS011;67903;52.108;9.358;2024-01-15T04:21:48;6.72;;;3.00;;
64986;SDS011;67903;52.108;9.358;2024-01-15T04:24:34;2.90;;;2.47;;
64986;SDS011;67903;52.108;9.358;2024-01-15T04:27:19;5.43;;;2.13;;
64986;SDS011;67903;52.108;9.358;2024-01-15T04:30:05;5.93;;;3.28;;
64986;SDS011;67903;52.108;9.358;2024-01-15T04:32:51;7.03;;;2.50;;
64986;SDS011;67903;52.108;9.358;2024-01-15T04:35:36;4.18;;;2.03;;
64986;SDS011;67903;52.108;9.358;2024-01-15T04:38:22;7.25;;;3.20;;
64986;SDS011;67903;52.108;9.358;2024-01-15T04:41:11;12.50;;;2.03;;
64986;SDS011;67903;52.108;9.358;2024-01-15T04:43:58;5.47;;;3.00;;
64986;SDS011;67903;52.108;9.358;2024-01-15T04:46:45;7.13;;;2.38;;
64986;SDS011;67903;52.108;9.358;2024-01-15T04:49:30;4.72;;;3.28;;
64986;SDS011;67903;52.108;9.358;2024-01-15T04:52:16;7.68;;;3.10;;
64986;SDS011;67903;52.108;9.358;2024-01-15T04:55:02;5.90;;;3.70;;
64986;SDS011;67903;52.108;9.358;2024-01-15T04:57:48;11.07;;;4.07;;
64986;SDS011;67903;52.108;9.358;2024-01-15T05:00:33;5.85;;;3.78;;
64986;SDS011;67903;52.108;9.358;2024-01-15T05:03:19;9.95;;;2.88;;
64986;SDS011;67903;52.108;9.358;2024-01-15T05:06:05;6.68;;;2.63;;
64986;SDS011;67903;52.108;9.358;2024-01-15T05:08:51;4.97;;;2.40;;
64986;SDS011;67903;52.108;9.358;2024-01-15T05:11:36;5.70;;;2.75;;
64986;SDS011;67903;52.108;9.358;2024-01-15T05:14:22;5.85;;;3.20;;
64986;SDS011;67903;52.108;9.358;2024-01-15T05:17:07;5.28;;;2.47;;
64986;SDS011;67903;52.108;9.358;2024-01-15T05:19:55;4.63;;;2.70;;
64986;SDS011;67903;52.108;9.358;2024-01-15T05:22:41;9.45;;;3.38;;
64986;SDS011;67903;52.108;9.358;2024-01-15T05:25:27;7.00;;;3.17;;
64986;SDS011;67903;52.108;9.358;2024-01-15T05:28:13;6.60;;;2.60;;
64986;SDS011;67903;52.108;9.358;2024-01-15T05:30:59;5.20;;;2.95;;
64986;SDS011;67903;52.108;9.358;2024-01-15T05:33:45;5.00;;;3.05;;
64986;SDS011;67903;52.108;9.358;2024-01-15T05:36:31;5.32;;;2.90;;
64986;SDS011;67903;52.108;9.358;2024-01-15T05:39:16;5.55;;;2.83;;
64986;SDS011;67903;52.108;9.358;2024-01-15T05:42:04;9.73;;;2.83;;
64986;SDS011;67903;52.108;9.358;2024-01-15T05:44:49;9.52;;;2.80;;
64986;SDS011;67903;52.108;9.358;2024-01-15T05:47:35;4.25;;;2.35;;
64986;SDS011;67903;52.108;9.358;2024-01-15T05:50:20;6.15;;;2.85;;
64986;SDS011;67903;52.108;9.358;2024-01-15T05:53:07;7.53;;;2.70;;
64986;SDS011;67903;52.108;9.358;2024-01-15T05:55:52;5.25;;;2.50;;
64986;SDS011;67903;52.108;9.358;2024-01-15T05:58:39;5.70;;;3.00;;
64986;SDS011;67903;52.108;9.358;2024-01-15T06:01:24;4.25;;;2.22;;
64986;SDS011;67903;52.108;9.358;2024-01-15T06:04:09;5.15;;;3.35;;
64986;SDS011;67903;52.108;9.358;2024-01-15T06:06:55;4.72;;;2.92;;
64986;SDS011;67903;52.108;9.358;2024-01-15T06:09:40;6.55;;;3.45;;
64986;SDS011;67903;52.108;9.358;2024-01-15T06:12:27;8.00;;;3.28;;
64986;SDS011;67903;52.108;9.358;2024-01-15T06:15:13;6.70;;;3.60;;
64986;SDS011;67903;52.108;9.358;2024-01-15T06:17:59;3.35;;;2.22;;
64986;SDS011;67903;52.108;9.358;2024-01-15T06:20:44;3.00;;;2.05;;
64986;SDS011;67903;52.108;9.358;2024-01-15T06:23:29;5.10;;;2.78;;
64986;SDS011;67903;52.108;9.358;2024-01-15T06:26:15;5.65;;;3.05;;
64986;SDS011;67903;52.108;9.358;2024-01-15T06:29:01;5.75;;;3.67;;
64986;SDS011;67903;52.108;9.358;2024-01-15T06:31:47;5.38;;;3.03;;
64986;SDS011;67903;52.108;9.358;2024-01-15T06:34:33;4.47;;;2.38;;
64986;SDS011;67903;52.108;9.358;2024-01-15T06:37:19;7.75;;;3.30;;
64986;SDS011;67903;52.108;9.358;2024-01-15T06:40:05;4.43;;;2.35;;
64986;SDS011;67903;52.108;9.358;2024-01-15T06:42:51;6.03;;;3.97;;
64986;SDS011;67903;52.108;9.358;2024-01-15T06:45:36;6.57;;;3.83;;
64986;SDS011;67903;52.108;9.358;2024-01-15T06:48:22;6.07;;;3.58;;
64986;SDS011;67903;52.108;9.358;2024-01-15T06:51:07;5.43;;;3.13;;
64986;SDS011;67903;52.108;9.358;2024-01-15T06:53:53;3.63;;;2.60;;
64986;SDS011;67903;52.108;9.358;2024-01-15T06:56:38;7.97;;;3.28;;
64986;SDS011;67903;52.108;9.358;2024-01-15T06:59:24;5.07;;;3.08;;
64986;SDS011;67903;52.108;9.358;2024-01-15T07:02:09;3.40;;;2.78;;
64986;SDS011;67903;52.108;9.358;2024-01-15T07:04:55;5.47;;;3.00;;
64986;SDS011;67903;52.108;9.358;2024-01-15T07:07:41;5.38;;;2.70;;
64986;SDS011;67903;52.108;9.358;2024-01-15T07:10:26;6.28;;;3.28;;
64986;SDS011;67903;52.108;9.358;2024-01-15T07:13:12;5.90;;;2.63;;
64986;SDS011;67903;52.108;9.358;2024-01-15T07:15:57;5.57;;;3.53;;
64986;SDS011;67903;52.108;9.358;2024-01-15T07:18:43;6.05;;;3.35;;
64986;SDS011;67903;52.108;9.358;2024-01-15T07:21:29;6.70;;;3.38;;
64986;SDS011;67903;52.108;9.358;2024-01-15T07:24:15;7.28;;;3.35;;
64986;SDS011;67903;52.108;9.358;2024-01-15T07:27:00;5.03;;;2.88;;
64986;SDS011;67903;52.108;9.358;2024-01-15T07:29:46;2.80;;;2.20;;
64986;SDS011;67903;52.108;9.358;2024-01-15T07:32:33;4.93;;;2.28;;
64986;SDS011;67903;52.108;9.358;2024-01-15T07:35:19;6.03;;;2.78;;
64986;SDS011;67903;52.108;9.358;2024-01-15T07:38:04;6.18;;;2.42;;
64986;SDS011;67903;52.108;9.358;2024-01-15T07:40:50;7.55;;;2.80;;
64986;SDS011;67903;52.108;9.358;2024-01-15T07:43:36;6.20;;;3.20;;
64986;SDS011;67903;52.108;9.358;2024-01-15T07:46:21;5.75;;;2.30;;
64986;SDS011;67903;52.108;9.358;2024-01-15T07:49:07;5.75;;;2.95;;
64986;SDS011;67903;52.108;9.358;2024-01-15T07:51:52;5.03;;;2.05;;
64986;SDS011;67903;52.108;9.358;2024-01-15T07:54:37;7.03;;;2.10;;
64986;SDS011;67903;52.108;9.358;2024-01-15T07:57:23;3.97;;;2.28;;
64986;SDS011;67903;52.108;9.358;2024-01-15T08:00:08;3.70;;;2.58;;
64986;SDS011;67903;52.108;9.358;2024-01-15T08:02:56;2.72;;;1.90;;
64986;SDS011;67903;52.108;9.358;2024-01-15T08:05:41;3.75;;;2.55;;
64986;SDS011;67903;52.108;9.358;2024-01-15T08:08:27;5.85;;;2.55;;
64986;SDS011;67903;52.108;9.358;2024-01-15T08:11:12;4.65;;;2.55;;
64986;SDS011;67903;52.108;9.358;2024-01-15T08:13:58;2.78;;;1.90;;
64986;SDS011;67903;52.108;9.358;2024-01-15T08:16:43;5.45;;;2.80;;
64986;SDS011;67903;52.108;9.358;2024-01-15T08:19:29;5.85;;;2.13;;
64986;SDS011;67903;52.108;9.358;2024-01-15T08:22:15;4.20;;;2.60;;
64986;SDS011;67903;52.108;9.358;2024-01-15T08:25:01;3.38;;;2.17;;
64986;SDS011;67903;52.108;9.358;2024-01-15T08:27:46;3.95;;;2.50;;
64986;SDS011;67903;52.108;9.358;2024-01-15T08:30:32;5.05;;;2.60;;
64986;SDS011;67903;52.108;9.358;2024-01-15T08:33:17;5.40;;;2.42;;
64986;SDS011;67903;52.108;9.358;2024-01-15T08:36:06;4.13;;;2.90;;
64986;SDS011;67903;52.108;9.358;2024-01-15T08:38:52;5.35;;;2.60;;
64986;SDS011;67903;52.108;9.358;2024-01-15T08:41:38;2.70;;;2.05;;
64986;SDS011;67903;52.108;9.358;2024-01-15T08:44:23;3.38;;;1.88;;
64986;SDS011;67903;52.108;9.358;2024-01-15T08:47:09;6.43;;;2.58;;
64986;SDS011;67903;52.108;9.358;2024-01-15T08:49:54;5.13;;;2.00;;
64986;SDS011;67903;52.108;9.358;2024-01-15T08:52:40;3.83;;;2.08;;
64986;SDS011;67903;52.108;9.358;2024-01-15T08:55:26;6.07;;;2.83;;
64986;SDS011;67903;52.108;9.358;2024-01-15T08:58:11;5.32;;;2.75;;
64986;SDS011;67903;52.108;9.358;2024-01-15T09:00:57;5.55;;;2.60;;
64986;SDS011;67903;52.108;9.358;2024-01-15T09:03:42;6.45;;;2.97;;
64986;SDS011;67903;52.108;9.358;2024-01-15T09:06:28;6.63;;;2.30;;
64986;SDS011;67903;52.108;9.358;2024-01-15T09:09:13;3.22;;;1.85;;
64986;SDS011;67903;52.108;9.358;2024-01-15T09:12:01;4.50;;;2.47;;
64986;SDS011;67903;52.108;9.358;2024-01-15T09:14:47;3.42;;;1.92;;
64986;SDS011;67903;52.108;9.358;2024-01-15T09:17:33;4.85;;;2.13;;
64986;SDS011;67903;52.108;9.358;2024-01-15T09:20:18;3.20;;;2.85;;
64986;SDS011;67903;52.108;9.358;2024-01-15T09:23:04;4.15;;;2.13;;
64986;SDS011;67903;52.108;9.358;2024-01-15T09:25:49;4.57;;;2.30;;
64986;SDS011;67903;52.108;9.358;2024-01-15T09:28:37;3.63;;;2.50;;
64986;SDS011;67903;52.108;9.358;2024-01-15T09:31:23;2.95;;;2.20;;
64986;SDS011;67903;52.108;9.358;2024-01-15T09:34:08;4.80;;;2.25;;
64986;SDS011;67903;52.108;9.358;2024-01-15T09:36:55;3.47;;;2.03;;
64986;SDS011;67903;52.108;9.358;2024-01-15T09:39:40;4.70;;;2.50;;
64986;SDS011;67903;52.108;9.358;2024-01-15T09:42:26;4.97;;;2.20;;
64986;SDS011;67903;52.108;9.358;2024-01-15T09:45:13;2.58;;;1.67;;
64986;SDS011;67903;52.108;9.358;2024-01-15T09:47:59;2.92;;;1.65;;
64986;SDS011;67903;52.108;9.358;2024-01-15T09:50:45;4.72;;;2.05;;
64986;SDS011;67903;52.108;9.358;2024-01-15T09:53:32;3.20;;;2.08;;
64986;SDS011;67903;52.108;9.358;2024-01-15T09:56:18;3.97;;;2.08;;
64986;SDS011;67903;52.108;9.358;2024-01-15T09:59:04;1.92;;;1.55;;
64986;SDS011;67903;52.108;9.358;2024-01-15T10:01:50;2.47;;;2.00;;
64986;SDS011;67903;52.108;9.358;2024-01-15T10:04:37;2.83;;;2.50;;
64986;SDS011;67903;52.108;9.358;2024-01-15T10:07:23;2.03;;;1.80;;
64986;SDS011;67903;52.108;9.358;2024-01-15T10:10:11;2.22;;;1.50;;
64986;SDS011;67903;52.108;9.358;2024-01-15T10:12:58;1.88;;;1.70;;
64986;SDS011;67903;52.108;9.358;2024-01-15T10:15:45;1.90;;;1.40;;
64986;SDS011;67903;52.108;9.358;2024-01-15T10:18:32;1.70;;;1.50;;
64986;SDS011;67903;52.108;9.358;2024-01-15T10:21:18;2.45;;;1.60;;
64986;SDS011;67903;52.108;9.358;2024-01-15T10:24:04;3.17;;;1.88;;
64986;SDS011;67903;52.108;9.358;2024-01-15T10:26:49;1.90;;;1.77;;
64986;SDS011;67903;52.108;9.358;2024-01-15T10:29:35;2.63;;;1.92;;
64986;SDS011;67903;52.108;9.358;2024-01-15T10:32:21;1.63;;;1.50;;
64986;SDS011;67903;52.108;9.358;2024-01-15T10:35:09;2.13;;;1.85;;
64986;SDS011;67903;52.108;9.358;2024-01-15T10:37:55;1.85;;;1.60;;
64986;SDS011;67903;52.108;9.358;2024-01-15T10:40:40;2.38;;;1.58;;
64986;SDS011;67903;52.108;9.358;2024-01-15T10:43:27;3.78;;;1.85;;
64986;SDS011;67903;52.108;9.358;2024-01-15T10:46:13;3.75;;;1.98;;
64986;SDS011;67903;52.108;9.358;2024-01-15T10:48:59;4.03;;;1.80;;
64986;SDS011;67903;52.108;9.358;2024-01-15T10:51:45;4.07;;;1.92;;
64986;SDS011;67903;52.108;9.358;2024-01-15T10:54:32;2.88;;;1.90;;
64986;SDS011;67903;52.108;9.358;2024-01-15T10:57:19;3.03;;;1.95;;
64986;SDS011;67903;52.108;9.358;2024-01-15T11:00:07;2.28;;;1.50;;
64986;SDS011;67903;52.108;9.358;2024-01-15T11:02:54;5.22;;;1.92;;
64986;SDS011;67903;52.108;9.358;2024-01-15T11:05:44;5.95;;;2.20;;
64986;SDS011;67903;52.108;9.358;2024-01-15T11:08:30;3.55;;;1.83;;
64986;SDS011;67903;52.108;9.358;2024-01-15T11:11:16;7.43;;;2.97;;
64986;SDS011;67903;52.108;9.358;2024-01-15T11:14:02;8.00;;;2.60;;
64986;SDS011;67903;52.108;9.358;2024-01-15T11:16:55;2.95;;;1.90;;
64986;SDS011;67903;52.108;9.358;2024-01-15T11:25:17;3.90;;;2.08;;
64986;SDS011;67903;52.108;9.358;2024-01-15T11:28:03;3.45;;;1.70;;
64986;SDS011;67903;52.108;9.358;2024-01-15T11:30:49;3.60;;;1.90;;
64986;SDS011;67903;52.108;9.358;2024-01-15T11:33:35;6.72;;;2.40;;
64986;SDS011;67903;52.108;9.358;2024-01-15T11:36:21;7.18;;;2.13;;
64986;SDS011;67903;52.108;9.358;2024-01-15T11:42:17;2.38;;;1.30;;
64986;SDS011;67903;52.108;9.358;2024-01-15T11:45:05;3.00;;;1.50;;
64986;SDS011;67903;52.108;9.358;2024-01-15T11:50:57;3.88;;;1.70;;
64986;SDS011;67903;52.108;9.358;2024-01-15T11:53:45;1.83;;;1.20;;
64986;SDS011;67903;52.108;9.358;2024-01-15T11:56:33;6.05;;;1.92;;
64986;SDS011;67903;52.108;9.358;2024-01-15T11:59:19;2.53;;;1.23;;
64986;SDS011;67903;52.108;9.358;2024-01-15T12:02:04;3.45;;;1.75;;
64986;SDS011;67903;52.108;9.358;2024-01-15T12:04:50;3.35;;;1.83;;
64986;SDS011;67903;52.108;9.358;2024-01-15T12:07:36;5.15;;;1.75;;
64986;SDS011;67903;52.108;9.358;2024-01-15T12:10:21;5.10;;;1.90;;
64986;SDS011;67903;52.108;9.358;2024-01-15T12:13:11;4.32;;;1.35;;
64986;SDS011;67903;52.108;9.358;2024-01-15T12:15:59;5.78;;;2.30;;
64986;SDS011;67903;52.108;9.358;2024-01-15T12:18:49;3.60;;;1.55;;
64986;SDS011;67903;52.108;9.358;2024-01-15T12:21:34;4.97;;;1.73;;
64986;SDS011;67903;52.108;9.358;2024-01-15T12:24:20;3.05;;;2.47;;
64986;SDS011;67903;52.108;9.358;2024-01-15T12:27:05;3.38;;;1.27;;
64986;SDS011;67903;52.108;9.358;2024-01-15T12:29:52;3.30;;;1.80;;
64986;SDS011;67903;52.108;9.358;2024-01-15T12:32:39;1.95;;;1.33;;
64986;SDS011;67903;52.108;9.358;2024-01-15T12:35:26;3.95;;;1.55;;
64986;SDS011;67903;52.108;9.358;2024-01-15T12:38:12;1.98;;;1.60;;
64986;SDS011;67903;52.108;9.358;2024-01-15T12:40:57;5.88;;;1.70;;
64986;SDS011;67903;52.108;9.358;2024-01-15T12:43:45;4.07;;;1.30;;
64986;SDS011;67903;52.108;9.358;2024-01-15T12:46:31;3.78;;;1.40;;
64986;SDS011;67903;52.108;9.358;2024-01-15T12:49:17;6.75;;;1.70;;
64986;SDS011;67903;52.108;9.358;2024-01-15T12:52:02;6.85;;;1.83;;
64986;SDS011;67903;52.108;9.358;2024-01-15T12:54:51;2.35;;;1.45;;
64986;SDS011;67903;52.108;9.358;2024-01-15T12:57:37;2.90;;;1.80;;
64986;SDS011;67903;52.108;9.358;2024-01-15T13:00:23;1.40;;;0.95;;
64986;SDS011;67903;52.108;9.358;2024-01-15T13:03:10;4.70;;;1.77;;
64986;SDS011;67903;52.108;9.358;2024-01-15T13:05:56;4.95;;;2.00;;
64986;SDS011;67903;52.108;9.358;2024-01-15T13:08:41;4.53;;;1.85;;
64986;SDS011;67903;52.108;9.358;2024-01-15T13:11:27;2.45;;;1.77;;
64986;SDS011;67903;52.108;9.358;2024-01-15T13:14:13;1.38;;;0.93;;
64986;SDS011;67903;52.108;9.358;2024-01-15T13:16:58;4.25;;;1.70;;
64986;SDS011;67903;52.108;9.358;2024-01-15T13:19:44;3.72;;;1.77;;
64986;SDS011;67903;52.108;9.358;2024-01-15T13:22:29;4.05;;;1.67;;
64986;SDS011;67903;52.108;9.358;2024-01-15T13:25:18;3.95;;;1.83;;
64986;SDS011;67903;52.108;9.358;2024-01-15T13:28:03;2.25;;;1.92;;
64986;SDS011;67903;52.108;9.358;2024-01-15T13:30:50;4.85;;;1.90;;
64986;SDS011;67903;52.108;9.358;2024-01-15T13:33:36;2.83;;;1.75;;
64986;SDS011;67903;52.108;9.358;2024-01-15T13:36:25;3.10;;;1.60;;
64986;SDS011;67903;52.108;9.358;2024-01-15T13:39:11;2.50;;;1.63;;
64986;SDS011;67903;52.108;9.358;2024-01-15T13:41:57;3.72;;;1.75;;
64986;SDS011;67903;52.108;9.358;2024-01-15T13:44:43;2.88;;;2.10;;
64986;SDS011;67903;52.108;9.358;2024-01-15T13:47:28;7.90;;;1.92;;
64986;SDS011;67903;52.108;9.358;2024-01-15T13:50:14;2.58;;;2.00;;
64986;SDS011;67903;52.108;9.358;2024-01-15T13:52:59;4.82;;;1.42;;
64986;SDS011;67903;52.108;9.358;2024-01-15T13:55:45;4.30;;;1.90;;
64986;SDS011;67903;52.108;9.358;2024-01-15T13:58:31;2.72;;;1.52;;
64986;SDS011;67903;52.108;9.358;2024-01-15T14:01:17;5.35;;;1.77;;
64986;SDS011;67903;52.108;9.358;2024-01-15T14:04:03;3.28;;;1.92;;
64986;SDS011;67903;52.108;9.358;2024-01-15T14:06:48;2.67;;;1.83;;
64986;SDS011;67903;52.108;9.358;2024-01-15T14:09:34;3.75;;;1.80;;
64986;SDS011;67903;52.108;9.358;2024-01-15T14:12:19;3.35;;;1.90;;
64986;SDS011;67903;52.108;9.358;2024-01-15T14:15:05;2.90;;;2.15;;
64986;SDS011;67903;52.108;9.358;2024-01-15T14:17:51;3.75;;;1.80;;
64986;SDS011;67903;52.108;9.358;2024-01-15T14:20:38;2.78;;;1.35;;
64986;SDS011;67903;52.108;9.358;2024-01-15T14:23:23;4.05;;;2.05;;
64986;SDS011;67903;52.108;9.358;2024-01-15T14:26:09;3.08;;;1.45;;
64986;SDS011;67903;52.108;9.358;2024-01-15T14:28:54;1.90;;;1.38;;
64986;SDS011;67903;52.108;9.358;2024-01-15T14:31:40;4.57;;;1.67;;
64986;SDS011;67903;52.108;9.358;2024-01-15T14:34:25;3.58;;;1.83;;
64986;SDS011;67903;52.108;9.358;2024-01-15T14:37:11;1.75;;;1.17;;
64986;SDS011;67903;52.108;9.358;2024-01-15T14:39:57;3.30;;;1.80;;
64986;SDS011;67903;52.108;9.358;2024-01-15T14:42:42;3.22;;;2.03;;
64986;SDS011;67903;52.108;9.358;2024-01-15T14:45:28;3.22;;;1.45;;
64986;SDS011;67903;52.108;9.358;2024-01-15T14:48:15;3.03;;;1.52;;
64986;SDS011;67903;52.108;9.358;2024-01-15T14:51:00;5.15;;;1.77;;
64986;SDS011;67903;52.108;9.358;2024-01-15T14:53:48;1.67;;;1.58;;
64986;SDS011;67903;52.108;9.358;2024-01-15T14:56:33;2.60;;;1.58;;
64986;SDS011;67903;52.108;9.358;2024-01-15T14:59:19;2.20;;;1.63;;
64986;SDS011;67903;52.108;9.358;2024-01-15T15:02:04;2.17;;;1.55;;
64986;SDS011;67903;52.108;9.358;2024-01-15T15:04:49;3.17;;;1.83;;
64986;SDS011;67903;52.108;9.358;2024-01-15T15:07:35;3.03;;;1.42;;
64986;SDS011;67903;52.108;9.358;2024-01-15T15:10:22;1.88;;;1.70;;
64986;SDS011;67903;52.108;9.358;2024-01-15T15:13:07;1.70;;;1.60;;
64986;SDS011;67903;52.108;9.358;2024-01-15T15:15:53;1.48;;;1.38;;
64986;SDS011;67903;52.108;9.358;2024-01-15T15:18:39;2.08;;;1.70;;
64986;SDS011;67903;52.108;9.358;2024-01-15T15:21:25;2.85;;;1.02;;
64986;SDS011;67903;52.108;9.358;2024-01-15T15:24:11;3.33;;;1.92;;
64986;SDS011;67903;52.108;9.358;2024-01-15T15:26:56;1.58;;;1.40;;
64986;SDS011;67903;52.108;9.358;2024-01-15T15:29:42;1.55;;;1.45;;
64986;SDS011;67903;52.108;9.358;2024-01-15T15:32:27;1.85;;;1.67;;
64986;SDS011;67903;52.108;9.358;2024-01-15T15:35:13;3.13;;;1.30;;
64986;SDS011;67903;52.108;9.358;2024-01-15T15:37:59;1.52;;;1.23;;
64986;SDS011;67903;52.108;9.358;2024-01-15T15:40:44;2.35;;;1.52;;
64986;SDS011;67903;52.108;9.358;2024-01-15T15:43:30;1.00;;;1.00;;
64986;SDS011;67903;52.108;9.358;2024-01-15T15:46:16;3.45;;;1.48;;
64986;SDS011;67903;52.108;9.358;2024-01-15T15:49:01;1.35;;;1.25;;
64986;SDS011;67903;52.108;9.358;2024-01-15T15:51:52;1.70;;;1.60;;
64986;SDS011;67903;52.108;9.358;2024-01-15T15:54:37;1.42;;;1.33;;
64986;SDS011;67903;52.108;9.358;2024-01-15T15:57:23;1.00;;;0.95;;
64986;SDS011;67903;52.108;9.358;2024-01-15T16:00:11;2.17;;;1.80;;
64986;SDS011;67903;52.108;9.358;2024-01-15T16:02:57;1.83;;;1.40;;
64986;SDS011;67903;52.108;9.358;2024-01-15T16:05:43;0.90;;;0.90;;
64986;SDS011;67903;52.108;9.358;2024-01-15T16:08:37;1.10;;;1.00;;
64986;SDS011;67903;52.108;9.358;2024-01-15T16:11:23;1.60;;;1.35;;
64986;SDS011;67903;52.108;9.358;2024-01-15T16:14:08;1.90;;;1.15;;
64986;SDS011;67903;52.108;9.358;2024-01-15T16:16:54;1.30;;;1.20;;
64986;SDS011;67903;52.108;9.358;2024-01-15T16:20:02;3.47;;;1.25;;
64986;SDS011;67903;52.108;9.358;2024-01-15T16:23:08;1.80;;;1.30;;
64986;SDS011;67903;52.108;9.358;2024-01-15T16:26:14;1.45;;;1.10;;
64986;SDS011;67903;52.108;9.358;2024-01-15T16:29:00;2.05;;;1.42;;
64986;SDS011;67903;52.108;9.358;2024-01-15T16:31:48;0.70;;;0.65;;
64986;SDS011;67903;52.108;9.358;2024-01-15T16:34:34;0.98;;;0.95;;
64986;SDS011;67903;52.108;9.358;2024-01-15T16:37:20;1.88;;;1.40;;
64986;SDS011;67903;52.108;9.358;2024-01-15T16:40:06;1.48;;;1.08;;
64986;SDS011;67903;52.108;9.358;2024-01-15T16:42:53;1.52;;;0.95;;
64986;SDS011;67903;52.108;9.358;2024-01-15T16:45:39;3.13;;;1.40;;
64986;SDS011;67903;52.108;9.358;2024-01-15T16:48:24;2.10;;;1.33;;
64986;SDS011;67903;52.108;9.358;2024-01-15T16:51:11;5.82;;;2.67;;
64986;SDS011;67903;52.108;9.358;2024-01-15T16:53:56;2.75;;;1.60;;